Time;durP1;ratioP1;P1;durP2;ratioP2;P2;SDS_P1;SDS_P2;PMS_P1;PMS_P2;Temp;Humidity;BMP_temperature;BMP_pressure;BME280_temperature;BME280_humidity;BME280_pressure;Samples;Min_cycle;Max_cycle;Signal;HPM_P1;HPM_P2
2022/08/12 00:47:11;;;;;;;3.20;1.83;;;;;;;19.41;73.04;101517.69;10554121;28;20040;-79
2022/08/12 00:52:15;;;;;;;2.53;1.50;;;;;;;19.44;72.92;101519.88;10569216;28;20063;-80
2022/08/12 00:57:34;;;;;;;3.00;1.95;;;;;;;19.40;73.66;101516.06;10569109;28;20039;-79
2022/08/12 01:02:39;;;;;;;2.15;1.70;;;;;;;19.30;73.95;101524.69;10569301;28;20044;-79
2022/08/12 01:13:03;;;;;;;6.15;1.90;;;;;;;19.19;75.16;101532.47;10568157;28;20040;-80
2022/08/12 01:18:06;;;;;;;3.13;1.70;;;;;;;19.21;75.49;101524.63;10551410;28;20064;-79
2022/08/12 01:23:32;;;;;;;3.45;2.08;;;;;;;19.21;75.72;101532.97;10550478;28;20059;-79
2022/08/12 01:28:34;;;;;;;3.03;2.00;;;;;;;19.23;76.06;101527.09;10568772;28;20036;-79
2022/08/12 01:34:02;;;;;;;3.25;1.80;;;;;;;19.32;75.58;101527.97;10568752;28;20469;-79
2022/08/12 01:39:04;;;;;;;4.75;2.10;;;;;;;19.41;75.73;101533.56;10568476;28;20066;-79
2022/08/12 01:44:08;;;;;;;1.88;1.77;;;;;;;19.33;76.41;101532.41;10553695;28;20047;-79
2022/08/12 01:49:14;;;;;;;3.47;1.83;;;;;;;19.36;76.16;101531.75;10594284;28;20063;-79
2022/08/12 01:54:18;;;;;;;2.10;1.80;;;;;;;19.37;76.42;101532.56;10617529;28;20039;-79
2022/08/12 01:59:48;;;;;;;3.35;1.98;;;;;;;19.37;76.38;101536.19;10599626;28;20040;-80
2022/08/12 02:11:17;;;;;;;2.97;1.83;;;;;;;19.15;77.75;101536.22;10616585;28;20047;-80
2022/08/12 02:16:35;;;;;;;2.90;2.00;;;;;;;19.16;78.11;101527.53;10598298;28;20052;-80
2022/08/12 02:21:38;;;;;;;;;;;;;;;19.21;77.72;101527.41;10617386;28;20414;-80
2022/08/12 02:26:42;;;;;;;4.25;1.88;;;;;;;19.19;78.00;101538.03;10598482;28;20329;-79
2022/08/12 02:31:46;;;;;;;3.00;1.92;;;;;;;19.16;78.33;101543.41;10598318;28;20054;-79
2022/08/12 02:36:54;;;;;;;7.00;1.90;;;;;;;19.27;77.98;101539.25;10598304;28;20047;-79
2022/08/12 02:41:59;;;;;;;4.22;2.00;;;;;;;19.19;78.26;101548.34;10598512;28;20122;-78
2022/08/12 02:47:04;;;;;;;2.15;1.95;;;;;;;19.18;78.41;101555.88;10616119;28;20055;-79
2022/08/12 02:52:07;;;;;;;3.03;2.03;;;;;;;19.19;78.42;101553.91;10616180;28;20407;-78
2022/08/12 02:57:12;;;;;;;7.13;2.10;;;;;;;19.17;78.74;101557.00;10597138;28;20039;-79
2022/08/12 03:02:16;;;;;;;2.83;1.92;;;;;;;19.29;78.21;101550.88;10597585;28;20421;-78
2022/08/12 03:07:25;;;;;;;4.15;2.08;;;;;;;19.35;78.84;101546.81;10597591;28;20039;-78
2022/08/12 03:12:29;;;;;;;2.67;2.30;;;;;;;19.31;79.10;101539.44;10614109;28;20047;-81
2022/08/12 03:17:38;;;;;;;3.40;2.28;;;;;;;19.30;78.98;101544.16;10597155;28;20039;-80
2022/08/12 03:22:42;;;;;;;4.03;2.00;;;;;;;19.42;78.76;101546.34;10579916;28;20051;-81
2022/08/12 03:27:54;;;;;;;3.72;2.25;;;;;;;19.53;78.52;101558.88;10614235;28;20035;-80
2022/08/12 03:32:59;;;;;;;2.70;1.75;;;;;;;19.53;78.34;101554.13;10614194;28;20036;-80
2022/08/12 03:38:08;;;;;;;3.63;1.98;;;;;;;19.53;78.65;101561.66;10613908;28;20048;-80
2022/08/12 04:04:54;;;;;;;3.58;2.22;;;;;;;19.47;78.98;101569.31;10612018;28;20039;-80
2022/08/12 04:09:57;;;;;;;6.90;2.60;;;;;;;19.48;79.65;101573.75;10612385;28;20057;-80
2022/08/12 04:15:00;;;;;;;3.33;2.13;;;;;;;19.57;79.70;101576.59;10577259;28;20046;-80
2022/08/12 04:20:03;;;;;;;8.60;2.67;;;;;;;19.60;79.13;101575.97;10593724;28;20055;-80
2022/08/12 04:25:06;;;;;;;2.90;2.22;;;;;;;19.72;79.00;101578.97;10593296;28;20056;-80
2022/08/12 04:30:10;;;;;;;5.50;2.53;;;;;;;19.80;79.09;101588.53;10593269;28;20040;-80
2022/08/12 04:35:12;;;;;;;4.35;2.35;;;;;;;19.82;79.17;101580.69;10551446;28;20537;-80
2022/08/12 04:40:16;;;;;;;4.18;2.00;;;;;;;20.06;79.03;101572.72;10551692;28;20526;-80
2022/08/12 04:45:19;;;;;;;5.57;2.65;;;;;;;20.21;77.68;101581.81;10534318;28;20047;-80
2022/08/12 04:50:23;;;;;;;3.70;2.60;;;;;;;20.51;77.18;101577.31;10569579;28;20044;-80
2022/08/12 04:55:33;;;;;;;6.10;2.60;;;;;;;20.67;76.44;101582.09;10568953;28;20150;-80
2022/08/12 05:00:37;;;;;;;4.55;2.45;;;;;;;20.82;76.04;101585.53;10534133;28;20082;-80
2022/08/12 05:05:39;;;;;;;4.07;2.72;;;;;;;20.82;75.43;101583.56;10550636;28;20048;-80
2022/08/12 05:10:45;;;;;;;4.55;2.53;;;;;;;20.91;75.33;101603.13;10551204;28;20589;-80
2022/08/12 05:15:47;;;;;;;2.33;2.08;;;;;;;20.93;75.42;101595.22;10550638;28;20052;-80
2022/08/12 05:20:53;;;;;;;4.13;2.08;;;;;;;21.01;75.22;101603.63;10590698;28;20039;-80
2022/08/12 05:25:55;;;;;;;3.90;2.83;;;;;;;21.23;74.46;101599.81;10601363;28;20054;-80
2022/08/12 05:31:00;;;;;;;3.20;2.53;;;;;;;21.15;75.06;101597.03;10618869;28;20047;-80
2022/08/12 05:36:07;;;;;;;4.07;2.90;;;;;;;21.40;74.43;101601.81;10619189;28;20520;-80
2022/08/12 05:41:17;;;;;;;;;;;;;;;21.51;73.49;101602.25;10619148;28;20043;-80
2022/08/12 05:46:21;;;;;;;5.72;2.95;;;;;;;21.49;73.68;101607.38;10600357;28;19920;-80
2022/08/12 05:51:26;;;;;;;5.57;2.90;;;;;;;21.42;73.70;101619.03;10598660;28;20070;-80
2022/08/12 05:56:30;;;;;;;3.63;2.78;;;;;;;21.33;73.21;101621.00;10599250;28;20035;-80
2022/08/12 06:01:33;;;;;;;4.18;2.63;;;;;;;21.65;73.46;101626.06;10617518;28;20052;-80
2022/08/12 06:06:40;;;;;;;3.28;2.50;;;;;;;22.44;71.15;101621.03;10598806;28;20417;-80
2022/08/12 06:11:46;;;;;;;3.42;2.55;;;;;;;23.10;67.49;101615.66;10599293;28;20047;-81
2022/08/12 06:16:50;;;;;;;5.75;2.28;;;;;;;22.92;68.28;101628.16;10598919;28;20422;-80
2022/08/12 06:21:53;;;;;;;4.93;2.38;;;;;;;23.22;66.95;101623.28;10618325;28;20048;-80
2022/08/12 06:26:56;;;;;;;3.85;2.30;;;;;;;23.20;67.06;101629.22;10616855;28;20050;-80
2022/08/12 06:31:58;;;;;;;3.80;2.63;;;;;;;23.52;65.95;101624.81;10615186;28;20052;-80
2022/08/12 06:37:03;;;;;;;4.53;2.30;;;;;;;24.22;63.73;101624.84;10616348;28;20059;-80
2022/08/12 06:47:26;;;;;;;5.30;2.40;;;;;;;23.60;64.32;101631.50;10615588;28;20386;-80
2022/08/12 06:52:31;;;;;;;3.75;2.63;;;;;;;24.37;62.44;101634.59;10616036;28;20035;-80
2022/08/12 06:57:53;;;;;;;4.30;2.28;;;;;;;24.60;61.24;101632.94;10598198;28;20063;-80
2022/08/12 07:02:56;;;;;;;6.55;2.50;;;;;;;24.53;60.80;101633.53;10616009;28;20040;-80
2022/08/12 07:08:01;;;;;;;5.00;2.13;;;;;;;24.72;60.08;101638.53;10615013;28;20528;-80
2022/08/12 07:13:04;;;;;;;6.88;2.42;;;;;;;25.03;59.94;101651.16;10615251;28;20506;-80
2022/08/12 07:18:16;;;;;;;3.33;2.25;;;;;;;25.01;57.86;101647.88;10614936;28;20405;-80
2022/08/12 07:23:18;;;;;;;4.28;2.22;;;;;;;25.33;57.78;101655.25;10579287;28;20066;-81
2022/08/12 07:28:23;;;;;;;3.72;2.20;;;;;;;26.15;55.57;101657.53;10595557;28;20056;-80
2022/08/12 07:33:27;;;;;;;3.97;2.30;;;;;;;27.13;51.85;101656.69;10614093;28;20051;-80
2022/08/12 07:38:37;;;;;;;2.22;1.98;;;;;;;27.89;50.86;101655.84;10595340;28;20047;-80
2022/08/12 07:43:43;;;;;;;3.70;1.83;;;;;;;28.45;48.96;101649.56;10594658;28;20042;-80
2022/08/12 07:48:48;;;;;;;5.07;1.93;;;;;;;28.69;48.31;101658.81;10613458;28;20073;-80
2022/08/12 07:53:51;;;;;;;5.53;2.15;;;;;;;28.92;47.51;101670.91;10595770;28;20058;-80
2022/08/12 07:58:54;;;;;;;4.40;2.38;;;;;;;28.62;47.69;101664.34;10612578;28;20040;-80
2022/08/12 08:09:20;;;;;;;2.78;2.30;;;;;;;28.65;46.91;101672.09;10597851;28;20046;-80
2022/08/12 08:14:24;;;;;;;2.90;2.13;;;;;;;28.43;47.08;101676.56;10612393;28;20047;-80
2022/08/12 08:19:27;;;;;;;5.65;2.40;;;;;;;28.43;47.09;101680.19;10577678;28;20409;-80
2022/08/12 08:24:30;;;;;;;2.42;2.10;;;;;;;28.37;46.88;101681.72;10612371;28;20122;-80
2022/08/12 08:29:34;;;;;;;2.80;2.03;;;;;;;28.40;47.77;101680.94;10594024;28;20044;-80
2022/08/12 08:34:36;;;;;;;3.65;2.20;;;;;;;28.98;46.23;101683.50;10593878;28;20044;-80
2022/08/12 08:39:40;;;;;;;4.32;2.10;;;;;;;29.08;46.62;101691.31;10611840;28;20048;-80
2022/08/12 08:44:42;;;;;;;2.50;1.85;;;;;;;29.10;46.21;101690.94;10612252;28;20055;-80
2022/08/12 08:49:44;;;;;;;3.70;2.50;;;;;;;29.14;45.04;101697.44;10593046;28;20586;-79
2022/08/12 08:54:48;;;;;;;2.83;2.33;;;;;;;28.83;45.65;101698.59;10611086;28;20040;-80
2022/08/12 08:59:50;;;;;;;3.08;2.10;;;;;;;28.36;46.19;101707.50;10612167;28;20043;-79
2022/08/12 09:04:52;;;;;;;3.42;1.92;;;;;;;28.32;47.28;101695.34;10611016;28;20417;-79
2022/08/12 09:09:56;;;;;;;3.78;2.30;;;;;;;27.81;47.58;101715.31;10611404;28;20416;-81
2022/08/12 09:14:58;;;;;;;4.90;2.53;;;;;;;27.73;47.74;101702.25;10574939;28;20054;-80
2022/08/12 09:20:01;;;;;;;2.50;2.10;;;;;;;28.12;46.73;101706.66;10610562;28;20047;-80
2022/08/12 09:25:05;;;;;;;2.10;1.90;;;;;;;27.69;47.74;101707.84;10592447;28;20500;-80
2022/08/12 09:30:14;;;;;;;4.05;2.15;;;;;;;27.42;48.16;101708.84;10559132;28;20048;-80
2022/08/12 09:35:32;;;;;;;3.35;2.28;;;;;;;26.98;48.44;101700.59;10610776;28;20073;-80
2022/08/12 09:40:34;;;;;;;4.00;1.92;;;;;;;26.50;49.23;101704.66;10575361;28;20043;-80
2022/08/12 09:45:36;;;;;;;4.55;2.42;;;;;;;26.00;50.73;101698.53;10592758;28;20054;-80
2022/08/12 09:50:39;;;;;;;2.70;2.35;;;;;;;25.63;51.87;101705.47;10609514;28;20047;-81
2022/08/12 09:55:50;;;;;;;3.28;2.53;;;;;;;25.51;52.42;101692.28;10609786;28;20047;-80
2022/08/12 10:00:53;;;;;;;3.80;2.33;;;;;;;25.30;52.64;101695.28;10592250;28;20051;-81
2022/08/12 10:06:00;;;;;;;3.05;2.03;;;;;;;25.08;54.66;101695.81;10580328;28;20042;-81
2022/08/12 10:16:33;;;;;;;2.90;1.90;;;;;;;24.72;54.73;101697.47;10584254;28;20041;-80
2022/08/12 10:21:37;;;;;;;3.00;2.10;;;;;;;24.72;53.38;101691.88;10617336;28;20523;-80
2022/08/12 10:32:02;;;;;;;3.55;2.10;;;;;;;24.63;54.49;101693.97;10601056;28;20047;-80
2022/08/12 10:37:05;;;;;;;6.35;2.40;;;;;;;24.59;54.76;101693.03;10616547;28;20040;-81
2022/08/12 10:47:31;;;;;;;2.78;2.40;;;;;;;24.73;55.20;101696.31;10616445;28;20543;-80
2022/08/12 10:52:38;;;;;;;2.45;2.25;;;;;;;24.76;55.79;101687.19;10616286;28;20062;-80
2022/08/12 10:57:41;;;;;;;3.33;2.60;;;;;;;24.80;56.14;101687.28;10615986;28;20058;-80
2022/08/12 11:02:53;;;;;;;3.42;2.60;;;;;;;24.89;56.38;101674.78;10614975;28;20048;-81
2022/08/12 11:07:55;;;;;;;3.35;2.80;;;;;;;24.83;55.55;101690.22;10597209;28;20043;-81
2022/08/12 11:12:58;;;;;;;4.47;2.55;;;;;;;24.80;55.13;101671.25;10615415;28;20048;-80
2022/08/12 11:18:00;;;;;;;3.67;2.40;;;;;;;24.83;55.57;101681.81;10615228;28;20058;-80
2022/08/12 11:23:02;;;;;;;3.95;3.42;;;;;;;24.79;55.96;101674.41;10615288;28;20039;-81
2022/08/12 11:28:05;;;;;;;7.85;2.85;;;;;;;24.65;55.85;101669.19;10596355;28;20044;-80
2022/08/12 11:33:08;;;;;;;4.30;2.60;;;;;;;24.66;55.93;101665.22;10614156;28;20059;-80
2022/08/12 11:38:10;;;;;;;3.35;2.75;;;;;;;24.58;56.62;101666.13;10596916;28;20042;-80
2022/08/12 11:43:13;;;;;;;5.47;2.75;;;;;;;24.51;56.89;101655.53;10578633;28;20528;-81
2022/08/12 11:48:15;;;;;;;3.92;2.42;;;;;;;24.55;57.91;101652.81;10578215;28;20051;-81
2022/08/12 11:53:17;;;;;;;4.80;2.60;;;;;;;24.55;57.84;101648.03;10592559;28;20051;-80
2022/08/12 11:58:19;;;;;;;5.03;2.53;;;;;;;24.54;57.85;101646.38;10595459;28;20040;-81
2022/08/12 12:03:21;;;;;;;5.05;2.95;;;;;;;24.46;57.46;101643.69;10613261;28;20497;-81
2022/08/12 12:08:30;;;;;;;3.63;2.95;;;;;;;24.44;58.17;101635.63;10612235;28;20039;-81
2022/08/12 12:13:33;;;;;;;9.32;3.20;;;;;;;24.50;58.52;101639.84;10611609;28;20395;-80
2022/08/12 12:18:35;;;;;;;6.18;3.25;;;;;;;24.57;57.43;101633.63;10612610;28;20044;-81
2022/08/12 12:23:37;;;;;;;7.40;3.45;;;;;;;24.57;58.21;101636.44;10612438;28;20055;-81
2022/08/12 12:28:41;;;;;;;4.38;3.22;;;;;;;24.55;58.16;101638.78;10609752;28;20046;-80
2022/08/12 12:33:43;;;;;;;5.32;2.83;;;;;;;24.48;58.04;101625.34;10611992;28;20062;-80
2022/08/12 12:38:45;;;;;;;4.07;2.80;;;;;;;24.45;58.02;101631.66;10593250;28;20035;-80
2022/08/12 12:43:47;;;;;;;6.00;3.08;;;;;;;24.49;58.10;101626.19;10593586;28;20058;-81
2022/08/12 12:48:49;;;;;;;3.95;3.20;;;;;;;24.53;58.48;101632.72;10592815;28;20047;-81
2022/08/12 12:53:52;;;;;;;4.25;3.20;;;;;;;24.57;59.19;101619.59;10592949;28;20043;-81
2022/08/12 12:58:54;;;;;;;4.40;3.25;;;;;;;24.61;59.30;101620.53;10609976;28;20060;-80
2022/08/12 13:03:56;;;;;;;5.60;2.88;;;;;;;24.56;59.37;101624.41;10606385;28;20057;-80
2022/08/12 13:09:00;;;;;;;4.15;3.25;;;;;;;24.55;58.26;101621.94;10569234;28;20422;-80
2022/08/12 13:14:02;;;;;;;5.88;3.05;;;;;;;24.55;58.88;101613.53;10569090;28;20537;-81
2022/08/12 13:19:04;;;;;;;4.68;2.85;;;;;;;24.52;59.14;101615.06;10568948;28;20058;-81
2022/08/12 13:24:06;;;;;;;4.28;3.10;;;;;;;24.49;58.48;101614.94;10568307;28;20055;-81
2022/08/12 13:29:08;;;;;;;8.13;3.42;;;;;;;24.48;58.96;101602.91;10550642;28;20043;-81
2022/08/12 13:34:11;;;;;;;4.03;3.10;;;;;;;24.44;59.30;101603.94;10568548;28;20048;-81
2022/08/12 13:39:14;;;;;;;9.30;3.45;;;;;;;24.43;58.49;101603.13;10572068;28;20106;-81
2022/08/12 13:44:16;;;;;;;5.30;3.08;;;;;;;24.38;58.44;101610.97;10558102;28;20060;-81
2022/08/12 13:49:18;;;;;;;4.07;3.00;;;;;;;24.31;58.05;101609.59;10576341;28;20048;-81
2022/08/12 13:54:20;;;;;;;4.82;3.20;;;;;;;24.32;58.24;101608.41;10557617;28;20428;-81
2022/08/12 13:59:23;;;;;;;4.10;3.05;;;;;;;24.25;58.42;101599.72;10575828;28;20036;-80
2022/08/12 14:04:25;;;;;;;8.07;3.47;;;;;;;24.19;58.94;101595.53;10576119;28;20052;-81
2022/08/12 14:09:28;;;;;;;4.07;3.40;;;;;;;24.19;58.69;101605.91;10574762;28;20048;-80
2022/08/12 14:14:30;;;;;;;4.30;3.15;;;;;;;24.18;57.83;101598.69;10574879;28;20426;-81
2022/08/12 14:19:32;;;;;;;5.53;2.88;;;;;;;24.15;57.79;101591.78;10575100;28;20051;-81
2022/08/12 14:24:35;;;;;;;3.20;2.67;;;;;;;24.20;57.47;101605.56;10574612;28;20052;-81
2022/08/12 14:29:41;;;;;;;4.47;2.72;;;;;;;24.26;57.94;101598.53;10540017;28;20056;-81
2022/08/12 14:34:45;;;;;;;3.25;2.80;;;;;;;24.27;56.43;101596.56;10574872;28;20040;-81
2022/08/12 14:39:47;;;;;;;3.25;2.95;;;;;;;24.26;56.78;101597.72;10574545;28;20418;-81
2022/08/12 14:44:49;;;;;;;3.58;2.95;;;;;;;24.21;56.68;101593.19;10574304;28;20052;-81
2022/08/12 14:49:51;;;;;;;6.65;3.47;;;;;;;24.17;56.91;101592.25;10573786;28;20044;-81
2022/08/12 14:54:53;;;;;;;6.00;3.33;;;;;;;24.16;57.41;101595.41;10603199;28;20048;-81
2022/08/12 15:05:17;;;;;;;4.10;3.17;;;;;;;24.03;57.21;101605.78;10608105;28;20055;-82
2022/08/12 15:10:19;;;;;;;4.20;3.13;;;;;;;23.96;58.36;101609.19;10614915;28;20495;-80
2022/08/12 15:15:21;;;;;;;5.25;3.58;;;;;;;23.82;61.08;101624.69;10614844;28;20048;-81
2022/08/12 15:20:24;;;;;;;5.63;3.17;;;;;;;23.55;61.60;101629.72;10614989;28;20048;-81
2022/08/12 15:25:26;;;;;;;6.60;3.25;;;;;;;23.38;62.75;101624.28;10614020;28;20074;-81
2022/08/12 15:30:29;;;;;;;5.00;3.33;;;;;;;23.19;62.88;101630.38;10595826;28;20048;-81
2022/08/12 15:35:31;;;;;;;4.55;3.25;;;;;;;22.96;63.47;101624.31;10614434;28;20067;-81
2022/08/12 15:40:34;;;;;;;9.10;3.25;;;;;;;22.89;63.00;101631.59;10614095;28;20062;-80
2022/08/12 15:45:38;;;;;;;6.35;2.95;;;;;;;22.79;61.42;101619.63;10614165;28;20040;-80
2022/08/12 15:50:44;;;;;;;3.10;2.30;;;;;;;22.72;60.54;101610.94;10595909;28;20039;-80
2022/08/12 15:55:48;;;;;;;2.55;1.95;;;;;;;22.70;59.88;101623.66;10614056;28;20044;-81
2022/08/12 16:00:50;;;;;;;3.67;2.20;;;;;;;22.69;59.18;101613.63;10593953;28;20525;-81
2022/08/12 16:05:52;;;;;;;3.70;2.70;;;;;;;22.69;59.37;101602.41;10595429;28;20053;-81
2022/08/12 16:10:55;;;;;;;3.28;2.20;;;;;;;22.69;59.40;101600.44;10595202;28;20133;-80
2022/08/12 16:16:01;;;;;;;3.40;2.40;;;;;;;22.73;59.39;101594.97;10593810;28;20047;-80
2022/08/12 16:21:06;;;;;;;2.90;2.23;;;;;;;22.73;59.03;101589.38;10595704;28;20044;-80
2022/08/12 16:26:08;;;;;;;5.07;2.53;;;;;;;22.71;58.79;101589.72;10594102;28;20489;-80
2022/08/12 16:31:13;;;;;;;3.95;2.50;;;;;;;22.66;59.64;101589.13;10612265;28;20390;-80
2022/08/12 16:36:15;;;;;;;3.88;2.85;;;;;;;22.69;59.22;101586.44;10612910;28;20040;-80
2022/08/12 16:41:17;;;;;;;3.83;2.65;;;;;;;22.68;59.36;101582.03;10609870;28;20040;-80
2022/08/12 16:46:24;;;;;;;4.63;2.72;;;;;;;22.72;59.94;101573.75;10608952;28;20036;-80
2022/08/12 16:51:26;;;;;;;;;;;;;;;22.74;59.43;101579.84;10612119;28;20047;-80
2022/08/12 16:56:29;;;;;;;4.72;2.85;;;;;;;22.75;60.07;101581.50;10610725;28;19919;-80
2022/08/12 17:01:35;;;;;;;5.07;2.83;;;;;;;22.71;60.04;101574.91;10611605;28;20059;-80
2022/08/12 17:06:42;;;;;;;4.23;3.10;;;;;;;22.74;60.04;101577.06;10604657;28;20059;-80
2022/08/12 17:11:45;;;;;;;7.88;3.47;;;;;;;22.73;59.78;101583.78;10610232;28;20401;-80
2022/08/12 17:16:48;;;;;;;4.97;3.42;;;;;;;22.73;60.56;101569.78;10601640;28;20036;-80
2022/08/12 17:21:50;;;;;;;5.00;3.53;;;;;;;22.67;60.03;101569.19;10620291;28;20059;-80
2022/08/12 17:26:55;;;;;;;3.67;2.60;;;;;;;22.63;60.25;101571.03;10584542;28;20050;-80
2022/08/12 17:32:01;;;;;;;3.88;2.33;;;;;;;22.61;59.56;101564.97;10620050;28;20052;-80
2022/08/12 17:37:05;;;;;;;3.37;2.50;;;;;;;22.60;59.31;101570.91;10601933;28;20050;-80
2022/08/12 17:42:08;;;;;;;3.00;2.20;;;;;;;22.63;59.27;101581.41;10600558;28;20052;-80
2022/08/12 17:47:15;;;;;;;3.72;2.45;;;;;;;22.62;59.44;101569.41;10583841;28;20050;-80
2022/08/12 17:52:19;;;;;;;4.53;3.37;;;;;;;22.58;59.02;101570.44;10618709;28;20047;-80
2022/08/12 17:57:21;;;;;;;5.05;2.78;;;;;;;22.54;60.14;101571.09;10618513;28;20042;-80
2022/08/12 18:02:25;;;;;;;4.50;2.97;;;;;;;22.55;59.71;101571.91;10600140;28;20059;-80
2022/08/12 18:07:28;;;;;;;5.78;3.72;;;;;;;22.53;59.57;101577.03;10618095;28;20048;-80
2022/08/12 18:12:43;;;;;;;6.28;3.20;;;;;;;22.49;59.46;101574.09;10617817;28;20044;-80
2022/08/12 18:17:46;;;;;;;5.85;2.80;;;;;;;22.50;59.91;101578.53;10599420;28;20054;-80
2022/08/12 18:22:51;;;;;;;5.32;3.28;;;;;;;22.51;58.95;101577.38;10599935;28;20028;-80
2022/08/12 18:27:54;;;;;;;4.45;3.08;;;;;;;22.47;58.97;101570.81;10598184;28;20055;-80
2022/08/12 18:32:58;;;;;;;3.10;2.80;;;;;;;22.47;58.81;101573.63;10598827;28;20047;-80
2022/08/12 18:38:03;;;;;;;6.60;2.95;;;;;;;22.43;59.28;101569.03;10598323;28;20047;-80
2022/08/12 18:43:06;;;;;;;8.57;3.38;;;;;;;22.45;58.43;101578.72;10599277;28;20046;-80
2022/08/12 18:48:09;;;;;;;4.97;2.97;;;;;;;22.49;59.30;101574.09;10616093;28;20047;-79
2022/08/12 18:53:12;;;;;;;5.40;2.42;;;;;;;22.48;59.22;101575.25;10597992;28;20031;-79
2022/08/12 18:58:17;;;;;;;7.18;3.13;;;;;;;22.47;58.45;101579.22;10598016;28;20050;-81
2022/08/12 19:03:19;;;;;;;3.70;2.92;;;;;;;22.49;58.95;101576.88;10597145;28;20044;-79
2022/08/12 19:08:28;;;;;;;6.05;3.08;;;;;;;22.49;58.33;101578.88;10612684;28;20070;-81
2022/08/12 19:18:54;;;;;;;4.10;2.70;;;;;;;22.43;58.50;101581.06;10599727;28;20051;-81
2022/08/12 19:29:17;;;;;;;5.85;3.15;;;;;;;22.46;58.45;101585.97;10615383;28;20044;-81
2022/08/12 19:34:31;;;;;;;5.60;2.95;;;;;;;22.47;57.69;101579.22;10596900;28;20043;-79
2022/08/12 19:39:34;;;;;;;5.00;3.15;;;;;;;22.47;58.95;101579.22;10614673;28;20071;-79
2022/08/12 19:44:36;;;;;;;5.10;3.10;;;;;;;22.41;59.41;101583.38;10553231;28;20055;-80
2022/08/12 19:49:53;;;;;;;8.10;2.83;;;;;;;22.46;58.76;101576.75;10554246;28;20039;-79
2022/08/12 19:54:56;;;;;;;7.95;3.70;;;;;;;22.47;59.16;101578.38;10512123;28;20044;-80
2022/08/12 20:00:00;;;;;;;4.13;2.85;;;;;;;22.45;59.43;101578.72;10560058;28;20032;-80
2022/08/12 20:05:07;;;;;;;5.18;2.65;;;;;;;22.41;59.58;101579.75;10553453;28;20040;-80
2022/08/12 20:10:12;;;;;;;7.57;3.13;;;;;;;22.40;59.02;101578.13;10571692;28;20059;-79
2022/08/12 20:15:16;;;;;;;4.97;3.00;;;;;;;22.42;59.81;101573.81;10551988;28;20040;-79
2022/08/12 20:20:19;;;;;;;5.72;3.60;;;;;;;22.39;59.57;101568.91;10570751;28;20043;-80
2022/08/12 20:25:21;;;;;;;5.75;3.72;;;;;;;22.37;59.62;101570.38;10570082;28;20036;-79
2022/08/12 20:30:25;;;;;;;7.53;4.68;;;;;;;22.34;60.91;101571.88;10552689;28;20051;-79
2022/08/12 20:35:28;;;;;;;10.50;5.32;;;;;;;22.25;61.27;101573.94;10570255;28;20043;-79
2022/08/12 20:40:31;;;;;;;11.57;5.50;;;;;;;22.13;62.51;101573.81;10569681;28;20517;-81
2022/08/12 20:45:34;;;;;;;10.02;6.25;;;;;;;22.11;62.84;101576.13;10569220;28;20048;-81
2022/08/12 20:50:38;;;;;;;10.15;5.72;;;;;;;21.91;62.71;101577.66;10569574;28;20043;-81
2022/08/12 20:55:40;;;;;;;14.40;7.03;;;;;;;21.89;63.37;101578.00;10584935;28;20078;-81
2022/08/12 21:00:42;;;;;;;11.13;6.35;;;;;;;21.78;64.50;101568.34;10611607;28;20032;-81
2022/08/12 21:11:08;;;;;;;14.73;7.57;;;;;;;21.77;63.42;101558.31;10611058;28;20519;-81
2022/08/12 21:16:10;;;;;;;12.15;5.80;;;;;;;21.80;64.18;101568.00;10610711;28;20529;-81
2022/08/12 21:21:13;;;;;;;8.48;5.30;;;;;;;21.82;63.76;101572.09;10592600;28;20401;-81
2022/08/12 21:26:16;;;;;;;10.35;5.45;;;;;;;21.79;62.81;101567.19;10592649;28;20051;-80
2022/08/12 21:31:18;;;;;;;9.85;5.10;;;;;;;21.71;64.22;101559.69;10611771;28;20046;-80
2022/08/12 21:36:22;;;;;;;10.35;5.18;;;;;;;21.62;64.07;101556.91;10611066;28;20047;-80
2022/08/12 21:41:24;;;;;;;10.10;4.72;;;;;;;21.61;63.75;101569.22;10592121;28;20043;-80
2022/08/12 21:46:27;;;;;;;7.95;4.63;;;;;;;21.65;63.64;101574.97;10610653;28;20066;-81
2022/08/12 21:51:29;;;;;;;10.35;4.53;;;;;;;21.67;64.37;101575.44;10592419;28;20047;-80
2022/08/12 21:56:31;;;;;;;8.05;4.65;;;;;;;21.64;64.13;101581.69;10610028;28;20501;-80
2022/08/12 22:01:33;;;;;;;7.72;5.00;;;;;;;21.56;66.16;101580.59;10613193;28;20040;-80
2022/08/12 22:06:36;;;;;;;11.38;5.53;;;;;;;21.43;66.27;101584.38;10600326;28;20441;-80
2022/08/12 22:11:38;;;;;;;6.47;4.85;;;;;;;21.38;66.40;101578.16;10617892;28;20050;-80
2022/08/12 22:16:40;;;;;;;9.95;5.30;;;;;;;21.28;67.75;101582.94;10575016;28;20048;-80
2022/08/12 22:21:42;;;;;;;7.75;5.68;;;;;;;21.21;68.02;101584.56;10574005;28;20048;-80
2022/08/12 22:26:44;;;;;;;7.03;4.60;;;;;;;21.22;68.54;101591.78;10557510;28;20043;-81
2022/08/12 22:31:47;;;;;;;7.50;5.50;;;;;;;21.08;68.83;101595.56;10556629;28;20036;-80
2022/08/12 22:36:49;;;;;;;9.07;5.07;;;;;;;21.04;69.60;101590.97;10574861;28;20043;-81
2022/08/12 22:52:33;;;;;;;9.80;5.80;;;;;;;20.93;70.77;101595.22;10574078;28;20032;-81
2022/08/12 22:57:36;;;;;;;7.97;5.28;;;;;;;20.88;71.22;101598.19;10573438;28;20055;-81
2022/08/12 23:02:40;;;;;;;8.55;5.18;;;;;;;20.85;70.85;101599.69;10539101;28;20040;-81
2022/08/12 23:07:42;;;;;;;8.30;4.93;;;;;;;20.81;71.18;101600.63;10572136;28;20059;-81
2022/08/12 23:18:15;;;;;;;9.82;4.90;;;;;;;20.62;71.72;101595.38;10583658;28;20031;-81
2022/08/12 23:23:17;;;;;;;7.10;5.30;;;;;;;20.65;72.66;101598.34;10615101;28;20066;-81
2022/08/12 23:33:42;;;;;;;8.32;4.28;;;;;;;20.38;72.93;101590.22;10596617;28;20043;-81
2022/08/12 23:38:44;;;;;;;6.47;4.22;;;;;;;20.27;73.21;101588.84;10595837;28;20054;-81
2022/08/12 23:43:48;;;;;;;6.15;3.65;;;;;;;20.25;72.94;101586.41;10614356;28;20043;-79
2022/08/12 23:48:51;;;;;;;6.43;3.85;;;;;;;20.28;71.82;101591.31;10596008;28;20047;-81
2022/08/12 23:54:01;;;;;;;4.20;3.47;;;;;;;20.28;72.38;101591.31;10595793;28;20044;-79
2022/08/12 23:59:05;;;;;;;5.78;3.65;;;;;;;20.39;71.67;101598.25;10580700;28;20047;-80
